createdAt,value
2019-06-10T00:02:10.930Z,101300.69
2019-06-10T00:04:41.519Z,101302.48
2019-06-10T00:07:11.783Z,101291.81
2019-06-10T00:09:41.228Z,101300.48
2019-06-10T00:12:12.741Z,101294.97
2019-06-10T00:14:41.853Z,101295.89
2019-06-10T00:17:11.232Z,101296.28
2019-06-10T00:19:40.932Z,101291.70
2019-06-10T00:22:11.494Z,101288.82
2019-06-10T00:24:41.099Z,101279.82
2019-06-10T00:27:11.707Z,101270.47
2019-06-10T00:29:41.209Z,101267.02
2019-06-10T00:32:13.041Z,101259.45
2019-06-10T00:34:42.031Z,101253.00
2019-06-10T00:37:14.487Z,101250.47
2019-06-10T00:39:42.284Z,101251.06
2019-06-10T00:42:14.943Z,101244.00
2019-06-10T00:44:42.469Z,101239.95
2019-06-10T00:47:14.825Z,101235.04
2019-06-10T00:49:42.608Z,101230.84
2019-06-10T00:52:13.820Z,101229.98
2019-06-10T00:54:42.625Z,101222.70
2019-06-10T00:57:12.466Z,101222.34
2019-06-10T00:59:42.941Z,101199.93
2019-06-10T01:02:14.046Z,101206.03
2019-06-10T01:04:43.028Z,101199.23
2019-06-10T01:07:14.775Z,101191.67
2019-06-10T01:09:43.083Z,101191.91
2019-06-10T01:12:14.757Z,101182.94
2019-06-10T01:14:43.195Z,101184.12
2019-06-10T01:17:14.068Z,101181.98
2019-06-10T01:19:44.335Z,101179.11
2019-06-10T01:22:14.206Z,101181.02
2019-06-10T01:24:44.574Z,101172.28
2019-06-10T01:27:15.093Z,101168.33
2019-06-10T01:29:44.388Z,101167.97
2019-06-10T01:32:15.042Z,101161.86
2019-06-10T01:34:44.388Z,101165.09
2019-06-10T01:37:14.744Z,101158.26
2019-06-10T01:39:44.629Z,101159.09
2019-06-10T01:42:14.426Z,101157.07
2019-06-10T01:44:44.888Z,101151.19
2019-06-10T01:47:14.675Z,101151.07
2019-06-10T01:49:45.111Z,101145.69
2019-06-10T01:52:15.189Z,101135.75
2019-06-10T01:54:45.421Z,101133.96
2019-06-10T01:57:16.929Z,101132.52
2019-06-10T01:59:46.496Z,101131.45
2019-06-10T02:02:23.856Z,101127.61
2019-06-10T02:04:52.645Z,101129.28
2019-06-10T02:07:23.071Z,101118.59
2019-06-10T02:09:52.809Z,101108.30
2019-06-10T02:12:24.381Z,101104.81
2019-06-10T02:14:53.939Z,101107.91
2019-06-10T02:17:24.081Z,101110.39
2019-06-10T02:19:53.565Z,101107.13
2019-06-10T02:22:24.201Z,101105.43
2019-06-10T02:24:53.801Z,101108.03
2019-06-10T02:27:23.288Z,101102.41
2019-06-10T02:29:52.605Z,101095.00
2019-06-10T02:32:31.275Z,101097.84
2019-06-10T02:35:03.716Z,101089.74
2019-06-10T02:37:31.750Z,101083.88
2019-06-10T02:39:54.977Z,101085.30
2019-06-10T02:42:36.097Z,101073.72
2019-06-10T02:45:07.206Z,101078.02
2019-06-10T02:47:37.859Z,101073.72
2019-06-10T02:50:09.155Z,101069.46
2019-06-10T02:52:38.956Z,101064.09
2019-06-10T02:55:08.207Z,101060.88
2019-06-10T02:57:40.348Z,101057.89
2019-06-10T03:00:19.778Z,101053.19
2019-06-10T03:02:44.564Z,101052.93
2019-06-10T03:05:14.321Z,101047.68
2019-06-10T03:07:44.312Z,101042.90
2019-06-10T03:10:13.854Z,101043.98
2019-06-10T03:12:43.109Z,101041.58
2019-06-10T03:15:12.731Z,101037.64
2019-06-10T03:17:42.911Z,101028.11
2019-06-10T03:20:12.435Z,101033.26
2019-06-10T03:22:42.318Z,101033.03
2019-06-10T03:25:13.107Z,101029.79
2019-06-10T03:27:42.603Z,101029.20
2019-06-10T03:30:17.168Z,101025.62
2019-06-10T03:32:46.620Z,101029.87
2019-06-10T03:35:14.446Z,101025.91
2019-06-10T03:37:43.616Z,101024.14
2019-06-10T03:40:14.508Z,101018.62
2019-06-10T03:42:43.743Z,101010.27
2019-06-10T03:45:13.087Z,101010.37
2019-06-10T03:47:42.844Z,101012.30
2019-06-10T03:50:13.215Z,101012.78
2019-06-10T03:52:43.256Z,101012.30
2019-06-10T03:55:12.665Z,101011.47
2019-06-10T03:57:42.881Z,101006.94
2019-06-10T04:00:13.886Z,101000.37
2019-06-10T04:02:43.479Z,101005.12
2019-06-10T04:05:13.329Z,101004.42
2019-06-10T04:07:42.916Z,101008.61
2019-06-10T04:10:12.704Z,101011.00
2019-06-10T04:12:43.519Z,101011.11
2019-06-10T04:15:13.094Z,101007.53
2019-06-10T04:17:42.755Z,101018.03
2019-06-10T04:20:15.444Z,101017.31
2019-06-10T04:22:44.444Z,101013.05
2019-06-10T04:25:13.803Z,101015.42
2019-06-10T04:27:43.034Z,101015.52
2019-06-10T04:30:13.462Z,101012.32
2019-06-10T04:32:43.236Z,101005.18
2019-06-10T04:35:12.779Z,101002.77
2019-06-10T04:37:42.782Z,101007.92
2019-06-10T04:40:13.404Z,101005.39
2019-06-10T04:42:43.556Z,101002.17
2019-06-10T04:45:14.384Z,101006.16
2019-06-10T04:47:43.573Z,101003.17
2019-06-10T04:50:24.730Z,101001.12
2019-06-10T04:52:44.402Z,100996.32
2019-06-10T04:55:13.868Z,101002.67
2019-06-10T04:57:45.208Z,101001.48
2019-06-10T05:00:14.966Z,101006.14
2019-06-10T05:02:44.132Z,101003.77
2019-06-10T05:05:13.426Z,100996.27
2019-06-10T05:07:42.874Z,100992.52
2019-06-10T05:10:12.582Z,100987.75
2019-06-10T05:12:43.310Z,100993.33
2019-06-10T05:15:12.817Z,100980.41
2019-06-10T05:17:43.773Z,100980.23
2019-06-10T05:20:13.396Z,100976.22
2019-06-10T05:22:42.634Z,100975.92
2019-06-10T05:25:12.823Z,100964.56
2019-06-10T05:27:42.900Z,100963.11
2019-06-10T05:30:12.768Z,100957.19
2019-06-10T05:32:43.271Z,100952.58
2019-06-10T05:35:12.710Z,100960.95
2019-06-10T05:37:42.403Z,100955.32
2019-06-10T05:40:12.746Z,100959.64
2019-06-10T05:42:42.587Z,100957.03
2019-06-10T05:45:12.372Z,100959.95
2019-06-10T05:47:42.730Z,100954.28
2019-06-10T05:50:14.481Z,100958.61
2019-06-10T05:52:43.784Z,100954.16
2019-06-10T05:55:13.120Z,100959.64
2019-06-10T05:57:42.965Z,100960.08
2019-06-10T06:00:14.938Z,100956.70
2019-06-10T06:02:43.406Z,100951.00
2019-06-10T06:05:12.976Z,100951.00
2019-06-10T06:07:42.542Z,100950.13
2019-06-10T06:10:13.028Z,100945.59
2019-06-10T06:12:42.666Z,100948.47
2019-06-10T06:15:12.958Z,100950.42
2019-06-10T06:17:43.193Z,100943.92
2019-06-10T06:20:13.408Z,100939.27
2019-06-10T06:22:43.014Z,100933.02
2019-06-10T06:25:15.228Z,100935.98
2019-06-10T06:27:43.510Z,100939.13
2019-06-10T06:30:18.602Z,100937.73
2019-06-10T06:32:44.325Z,100938.34
2019-06-10T06:35:13.894Z,100940.83
2019-06-10T06:37:43.372Z,100942.85
2019-06-10T06:40:13.374Z,100942.28
2019-06-10T06:42:43.443Z,100939.84
2019-06-10T06:45:13.026Z,100942.08
2019-06-10T06:47:43.720Z,100937.43
2019-06-10T06:50:13.386Z,100927.74
2019-06-10T06:53:15.493Z,100932.27
2019-06-10T06:55:13.801Z,100927.76
2019-06-10T06:57:43.426Z,100933.19
2019-06-10T07:00:37.354Z,100930.40
2019-06-10T07:02:44.314Z,100930.83
2019-06-10T07:05:13.480Z,100921.02
2019-06-10T07:07:43.345Z,100921.83
2019-06-10T07:10:14.643Z,100918.14
2019-06-10T07:12:44.722Z,100923.05
2019-06-10T07:15:14.023Z,100923.67
2019-06-10T07:17:45.588Z,100918.99
2019-06-10T07:20:14.311Z,100916.42
2019-06-10T07:22:46.593Z,100914.27
2019-06-10T07:25:14.519Z,100908.98
2019-06-10T07:27:46.469Z,100915.02
2019-06-10T07:30:15.329Z,100918.37
2019-06-10T07:32:47.282Z,100917.73
2019-06-10T07:35:15.489Z,100912.45
2019-06-10T07:37:46.070Z,100920.31
2019-06-10T07:40:15.535Z,100916.03
2019-06-10T07:42:45.422Z,100910.65
2019-06-10T07:45:15.950Z,100910.05
2019-06-10T07:47:45.799Z,100905.22
2019-06-10T07:50:15.960Z,100898.89
2019-06-10T07:52:46.881Z,100898.17
2019-06-10T07:55:16.785Z,100899.88
2019-06-10T07:57:45.979Z,100890.17
2019-06-10T08:00:15.733Z,100888.25
2019-06-10T08:02:46.122Z,100887.32
2019-06-10T08:05:15.717Z,100883.72
2019-06-10T08:07:47.235Z,100880.34
2019-06-10T08:10:16.134Z,100883.23
2019-06-10T08:12:46.999Z,100883.92
2019-06-10T08:15:16.263Z,100880.73
2019-06-10T08:17:45.790Z,100872.70
2019-06-10T08:20:17.795Z,100872.94
2019-06-10T08:22:54.001Z,100874.37
2019-06-10T08:25:18.290Z,100868.53
2019-06-10T08:27:49.255Z,100861.66
2019-06-10T08:30:24.007Z,100868.16
2019-06-10T08:32:53.344Z,100862.65
2019-06-10T08:35:35.857Z,100861.50
2019-06-10T08:37:52.918Z,100859.77
2019-06-10T08:40:22.968Z,100862.91
2019-06-10T08:42:53.756Z,100866.20
2019-06-10T08:45:23.265Z,100866.96
2019-06-10T08:47:54.214Z,100867.81
2019-06-10T08:50:24.876Z,100863.65
2019-06-10T08:53:10.281Z,100868.81
2019-06-10T08:55:25.312Z,100866.28
2019-06-10T08:57:56.634Z,100866.95
2019-06-10T09:00:26.312Z,100862.75
2019-06-10T09:02:55.494Z,100862.88
2019-06-10T09:05:25.438Z,100855.38
2019-06-10T09:07:54.674Z,100854.45
2019-06-10T09:10:23.883Z,100855.48
2019-06-10T09:12:54.672Z,100853.14
2019-06-10T09:15:24.272Z,100852.46
2019-06-10T09:17:56.145Z,100846.17
2019-06-10T09:20:25.726Z,100849.48
2019-06-10T09:23:14.984Z,100847.14
2019-06-10T09:25:25.826Z,100848.92
2019-06-10T09:27:55.048Z,100838.67
2019-06-10T09:30:24.581Z,100846.83
2019-06-10T09:32:56.809Z,100842.41
2019-06-10T09:35:24.796Z,100833.62
2019-06-10T09:37:55.710Z,100841.41
2019-06-10T09:40:33.866Z,100842.30
2019-06-10T09:43:03.176Z,100835.08
2019-06-10T09:45:33.232Z,100834.11
2019-06-10T09:48:05.220Z,100843.69
2019-06-10T09:50:48.549Z,100844.31
2019-06-10T09:53:26.681Z,100844.14
2019-06-10T09:55:46.297Z,100841.28
2019-06-10T09:58:13.379Z,100841.91
2019-06-10T10:00:47.352Z,100837.34
2019-06-10T10:03:12.506Z,100838.14
2019-06-10T10:05:45.543Z,100841.37
2019-06-10T10:08:12.697Z,100836.84
2019-06-10T10:10:43.224Z,100827.02
2019-06-10T10:13:13.055Z,100829.03
2019-06-10T10:15:41.874Z,100826.48
2019-06-10T10:18:13.199Z,100820.37
2019-06-10T10:20:44.869Z,100809.61
2019-06-10T10:23:13.018Z,100809.34
2019-06-10T10:25:43.334Z,100811.69
2019-06-10T10:28:10.555Z,100811.42
2019-06-10T10:30:38.911Z,100807.96
2019-06-10T10:33:07.223Z,100799.42
2019-06-10T10:35:35.449Z,100791.84
2019-06-10T10:38:03.838Z,100786.31
2019-06-10T10:40:32.737Z,100786.11
2019-06-10T10:43:22.468Z,100789.90
2019-06-10T10:45:32.543Z,100798.95
2019-06-10T10:48:02.507Z,100787.91
2019-06-10T10:50:34.025Z,100779.75
2019-06-10T10:53:01.606Z,100779.83
2019-06-10T10:55:29.964Z,100791.36
2019-06-10T10:57:58.204Z,100783.19
2019-06-10T11:00:28.012Z,100774.60
2019-06-10T11:02:56.273Z,100769.55
2019-06-10T11:05:34.322Z,100772.97
2019-06-10T11:08:04.343Z,100758.56
2019-06-10T11:10:32.981Z,100752.80
2019-06-10T11:13:05.420Z,100757.41
2019-06-10T11:15:34.001Z,100763.23
2019-06-10T11:18:03.944Z,100760.89
2019-06-10T11:20:33.676Z,100760.25
2019-06-10T11:23:02.949Z,100749.08
2019-06-10T11:25:33.303Z,100748.95
2019-06-10T11:28:04.134Z,100749.37
2019-06-10T11:30:32.383Z,100749.72
2019-06-10T11:33:03.339Z,100743.29
2019-06-10T11:35:30.764Z,100743.14
2019-06-10T11:37:59.021Z,100738.24
2019-06-10T11:40:27.275Z,100741.45
2019-06-10T11:42:58.027Z,100733.31
2019-06-10T11:45:25.439Z,100732.68
2019-06-10T11:47:55.494Z,100731.77
2019-06-10T11:50:23.561Z,100730.36
2019-06-10T11:52:55.454Z,100729.19
2019-06-10T11:55:23.758Z,100728.36
2019-06-10T11:57:54.920Z,100726.30
2019-06-10T12:00:23.202Z,100721.78
2019-06-10T12:02:53.767Z,100721.30
2019-06-10T12:05:23.483Z,100715.77
2019-06-10T12:07:56.000Z,100719.02
2019-06-10T12:10:23.320Z,100715.81
2019-06-10T12:12:55.478Z,100707.06
2019-06-10T12:15:22.721Z,100708.66
2019-06-10T12:17:58.490Z,100703.20
2019-06-10T12:20:22.824Z,100702.39
2019-06-10T12:22:56.273Z,100702.28
2019-06-10T12:25:32.554Z,100699.89
2019-06-10T12:27:55.853Z,100699.31
2019-06-10T12:30:22.466Z,100693.61
2019-06-10T12:32:54.475Z,100687.73
2019-06-10T12:35:23.019Z,100692.22
2019-06-10T12:37:55.034Z,100679.41
2019-06-10T12:40:21.773Z,100684.98
2019-06-10T12:42:52.486Z,100680.69
2019-06-10T12:45:19.922Z,100677.43
2019-06-10T12:47:48.149Z,100675.03
2019-06-10T12:50:16.645Z,100681.45
2019-06-10T12:52:44.892Z,100685.80
2019-06-10T12:55:13.664Z,100682.10
2019-06-10T12:57:42.815Z,100682.36
2019-06-10T13:00:20.585Z,100676.40
2019-06-10T13:02:42.731Z,100677.91
2019-06-10T13:05:12.223Z,100677.07
2019-06-10T13:07:42.687Z,100669.14
2019-06-10T13:10:12.205Z,100666.76
2019-06-10T13:12:42.886Z,100662.38
2019-06-10T13:15:12.710Z,100651.34
2019-06-10T13:17:44.146Z,100648.83
2019-06-10T13:20:13.587Z,100637.84
2019-06-10T13:22:43.224Z,100631.60
2019-06-10T13:25:13.361Z,100633.66
2019-06-10T13:27:42.829Z,100637.01
2019-06-10T13:30:11.130Z,100639.77
2019-06-10T13:32:39.408Z,100626.72
2019-06-10T13:35:08.149Z,100629.00
2019-06-10T13:37:36.355Z,100618.79
2019-06-10T13:40:08.114Z,100621.03
2019-06-10T13:42:36.896Z,100618.89
2019-06-10T13:45:06.773Z,100613.06
2019-06-10T13:47:34.364Z,100611.72
2019-06-10T13:50:07.344Z,100605.97
2019-06-10T13:52:32.735Z,100608.97
2019-06-10T13:55:03.458Z,100617.89
2019-06-10T13:57:32.234Z,100614.90
2019-06-10T14:00:04.226Z,100608.06
2019-06-10T14:02:32.329Z,100600.58
2019-06-10T14:05:06.813Z,100604.06
2019-06-10T14:07:32.409Z,100598.10
2019-06-10T14:10:02.967Z,100592.05
2019-06-10T14:12:32.297Z,100591.33
2019-06-10T14:15:02.567Z,100587.38
2019-06-10T14:17:32.888Z,100586.30
2019-06-10T14:20:02.153Z,100579.50
2019-06-10T14:22:32.859Z,100571.68
2019-06-10T14:25:06.425Z,100570.58
2019-06-10T14:27:34.233Z,100568.26
2019-06-10T14:30:04.981Z,100561.96
2019-06-10T14:32:34.385Z,100568.14
2019-06-10T14:35:06.667Z,100566.19
2019-06-10T14:37:39.112Z,100572.55
2019-06-10T14:40:08.767Z,100578.47
2019-06-10T14:42:38.112Z,100578.24
2019-06-10T14:45:08.721Z,100572.23
2019-06-10T14:47:37.993Z,100563.14
2019-06-10T14:50:08.838Z,100559.46
2019-06-10T14:52:38.029Z,100561.22
2019-06-10T14:55:09.185Z,100556.23
2019-06-10T14:57:38.603Z,100549.66
2019-06-10T15:00:09.660Z,100551.22
2019-06-10T15:02:39.135Z,100544.66
2019-06-10T15:05:09.271Z,100548.67
2019-06-10T15:07:38.549Z,100543.48
2019-06-10T15:10:12.047Z,100539.56
2019-06-10T15:12:42.402Z,100537.91
2019-06-10T15:15:12.147Z,100530.44
2019-06-10T15:17:43.066Z,100530.95
2019-06-10T15:20:13.614Z,100529.65
2019-06-10T15:22:43.191Z,100522.75
2019-06-10T15:25:15.235Z,100524.95
2019-06-10T15:27:43.398Z,100522.66
2019-06-10T15:30:21.611Z,100527.12
2019-06-10T15:32:43.515Z,100516.20
2019-06-10T15:35:16.553Z,100516.69
2019-06-10T15:37:44.062Z,100514.81
2019-06-10T15:40:14.079Z,100515.22
2019-06-10T15:42:44.247Z,100512.98
2019-06-10T15:45:17.652Z,100522.73
2019-06-10T15:47:44.608Z,100520.85
2019-06-10T15:50:15.832Z,100512.42
2019-06-10T15:52:45.082Z,100507.05
2019-06-10T15:55:33.504Z,100501.80
2019-06-10T15:57:46.529Z,100496.72
2019-06-10T16:00:20.045Z,100491.89
2019-06-10T16:02:47.234Z,100485.16
2019-06-10T16:05:17.788Z,100481.26
2019-06-10T16:07:47.292Z,100480.66
2019-06-10T16:10:19.603Z,100477.55
2019-06-10T16:12:47.502Z,100478.22
2019-06-10T16:15:18.169Z,100471.69
2019-06-10T16:17:48.024Z,100481.03
2019-06-10T16:20:19.428Z,100478.47
2019-06-10T16:22:48.790Z,100477.00
2019-06-10T16:25:17.982Z,100462.45
2019-06-10T16:27:51.081Z,100455.77
2019-06-10T16:30:18.500Z,100455.94
2019-06-10T16:32:47.858Z,100456.39
2019-06-10T16:35:17.278Z,100447.34
2019-06-10T16:37:46.474Z,100441.99
2019-06-10T16:40:17.144Z,100437.30
2019-06-10T16:42:46.408Z,100428.44
2019-06-10T16:45:18.910Z,100428.66
2019-06-10T16:47:46.845Z,100430.11
2019-06-10T16:50:17.226Z,100434.55
2019-06-10T16:52:46.524Z,100432.78
2019-06-10T16:55:16.055Z,100430.73
2019-06-10T16:57:58.562Z,100434.04
2019-06-10T17:00:16.589Z,100431.76
2019-06-10T17:02:47.318Z,100427.55
2019-06-10T17:05:16.819Z,100424.75
2019-06-10T17:07:46.149Z,100420.73
2019-06-10T17:10:15.596Z,100414.55
2019-06-10T17:12:46.554Z,100411.38
2019-06-10T17:15:18.867Z,100423.33
2019-06-10T17:17:48.530Z,100423.65
2019-06-10T17:20:18.604Z,100421.78
2019-06-10T17:22:48.072Z,100416.43
2019-06-10T17:25:17.483Z,100412.93
2019-06-10T17:27:46.817Z,100415.81
2019-06-10T17:30:16.949Z,100419.83
2019-06-10T17:32:46.148Z,100416.52
2019-06-10T17:35:15.427Z,100418.50
2019-06-10T17:37:43.781Z,100421.72
2019-06-10T17:40:13.743Z,100422.31
2019-06-10T17:42:42.967Z,100419.41
2019-06-10T17:45:12.869Z,100420.84
2019-06-10T17:47:42.663Z,100423.16
2019-06-10T17:50:12.603Z,100423.56
2019-06-10T17:52:42.696Z,100421.52
2019-06-10T17:55:12.583Z,100422.92
2019-06-10T17:57:43.002Z,100422.92
2019-06-10T18:00:14.967Z,100413.33
2019-06-10T18:02:44.065Z,100414.05
2019-06-10T18:05:13.554Z,100418.95
2019-06-10T18:07:43.132Z,100414.42
2019-06-10T18:10:13.207Z,100414.97
2019-06-10T18:12:42.946Z,100414.53
2019-06-10T18:15:12.741Z,100408.86
2019-06-10T18:17:42.755Z,100405.89
2019-06-10T18:20:15.820Z,100407.47
2019-06-10T18:22:46.714Z,100407.33
2019-06-10T18:25:17.971Z,100412.19
2019-06-10T18:27:47.286Z,100418.22
2019-06-10T18:30:17.944Z,100462.22
2019-06-10T18:32:47.646Z,100480.39
2019-06-10T18:35:17.388Z,100501.80
2019-06-10T18:37:46.936Z,100501.34
2019-06-10T18:40:16.447Z,100501.64
2019-06-10T18:42:47.040Z,100512.98
2019-06-10T18:45:16.932Z,100505.49
2019-06-10T18:47:49.115Z,100486.64
2019-06-10T18:50:18.719Z,100490.46
2019-06-10T18:52:48.509Z,100493.34
2019-06-10T18:55:17.226Z,100498.13
2019-06-10T18:57:46.062Z,100495.44
2019-06-10T19:00:14.906Z,100499.81
2019-06-10T19:02:44.241Z,100489.69
2019-06-10T19:05:13.152Z,100482.39
2019-06-10T19:07:46.726Z,100476.80
2019-06-10T19:10:14.110Z,100484.55
2019-06-10T19:12:42.678Z,100482.09
2019-06-10T19:15:12.139Z,100493.05
2019-06-10T19:17:43.970Z,100497.09
2019-06-10T19:20:12.920Z,100493.63
2019-06-10T19:22:43.216Z,100490.22
2019-06-10T19:25:12.728Z,100489.38
2019-06-10T19:27:45.997Z,100480.88
2019-06-10T19:30:15.582Z,100475.64
2019-06-10T19:32:44.447Z,100469.06
2019-06-10T19:35:13.659Z,100468.33
2019-06-10T19:37:42.542Z,100468.48
2019-06-10T19:40:13.329Z,100462.03
2019-06-10T19:42:44.504Z,100458.94
2019-06-10T19:45:14.864Z,100453.77
2019-06-10T19:47:45.550Z,100459.42
2019-06-10T19:50:14.521Z,100463.09
2019-06-10T19:52:45.719Z,100467.16
2019-06-10T19:55:15.989Z,100475.92
2019-06-10T19:57:44.303Z,100482.34
2019-06-10T20:00:13.393Z,100481.55
2019-06-10T20:02:46.533Z,100480.57
2019-06-10T20:05:13.372Z,100486.69
2019-06-10T20:07:48.441Z,100492.33
2019-06-10T20:10:15.859Z,100502.56
2019-06-10T20:12:46.649Z,100504.81
2019-06-10T20:15:22.682Z,100497.38
2019-06-10T20:17:52.550Z,100499.19
2019-06-10T20:20:25.076Z,100499.67
2019-06-10T20:22:56.598Z,100501.73
2019-06-10T20:25:24.548Z,100504.37
2019-06-10T20:27:53.574Z,100506.28
2019-06-10T20:30:28.320Z,100511.70
2019-06-10T20:32:55.949Z,100502.80
2019-06-10T20:35:23.148Z,100503.56
2019-06-10T20:37:53.818Z,100499.55
2019-06-10T20:40:22.064Z,100494.94
2019-06-10T20:42:50.626Z,100500.79
2019-06-10T20:45:19.043Z,100493.30
2019-06-10T20:47:47.961Z,100494.14
2019-06-10T20:50:16.641Z,100487.72
2019-06-10T20:52:48.999Z,100474.80
2019-06-10T20:55:17.369Z,100465.54
2019-06-10T20:57:56.610Z,100464.53
2019-06-10T21:00:22.904Z,100460.02
2019-06-10T21:02:49.090Z,100459.57
2019-06-10T21:05:21.869Z,100468.98
2019-06-10T21:07:52.801Z,100472.53
2019-06-10T21:10:22.616Z,100474.84
2019-06-10T21:12:51.067Z,100477.48
2019-06-10T21:15:19.361Z,100474.95
2019-06-10T21:17:49.127Z,100477.66
2019-06-10T21:20:19.765Z,100477.69
2019-06-10T21:22:49.012Z,100477.95
2019-06-10T21:25:17.301Z,100480.74
2019-06-10T21:27:46.795Z,100477.31
2019-06-10T21:30:15.535Z,100479.56
2019-06-10T21:32:45.674Z,100486.52
2019-06-10T21:35:14.076Z,100495.81
2019-06-10T21:37:45.089Z,100505.21
2019-06-10T21:40:12.761Z,100510.20
2019-06-10T21:42:41.652Z,100521.12
2019-06-10T21:45:12.545Z,100519.90
2019-06-10T21:47:42.836Z,100516.28
2019-06-10T21:50:12.402Z,100522.93
2019-06-10T21:52:43.080Z,100525.13
2019-06-10T21:55:12.997Z,100519.35
2019-06-10T21:57:42.603Z,100521.56
2019-06-10T22:00:13.350Z,100519.65
2019-06-10T22:02:42.760Z,100508.98
2019-06-10T22:05:12.315Z,100514.51
2019-06-10T22:07:42.288Z,100521.66
2019-06-10T22:10:12.714Z,100522.48
2019-06-10T22:12:42.205Z,100517.84
2019-06-10T22:15:12.275Z,100530.22
2019-06-10T22:17:42.309Z,100528.75
2019-06-10T22:20:12.324Z,100524.69
2019-06-10T22:22:42.689Z,100518.33
2019-06-10T22:25:13.023Z,100503.79
2019-06-10T22:27:42.099Z,100493.17
2019-06-10T22:30:11.571Z,100482.16
2019-06-10T22:32:40.022Z,100482.30
2019-06-10T22:35:08.518Z,100488.66
2019-06-10T22:37:36.862Z,100492.00
2019-06-10T22:40:05.233Z,100480.55
2019-06-10T22:42:33.924Z,100473.73
2019-06-10T22:45:03.785Z,100470.22
2019-06-10T22:47:32.439Z,100467.58
2019-06-10T22:50:07.147Z,100465.27
2019-06-10T22:52:32.176Z,100461.66
2019-06-10T22:55:02.987Z,100457.30
2019-06-10T22:57:30.270Z,100446.38
2019-06-10T22:59:59.429Z,100430.77
2019-06-10T23:02:27.769Z,100421.67
2019-06-10T23:04:58.020Z,100419.37
2019-06-10T23:07:26.775Z,100427.69
2019-06-10T23:09:56.351Z,100423.23
2019-06-10T23:12:24.902Z,100426.16
2019-06-10T23:14:53.676Z,100440.52
2019-06-10T23:17:23.016Z,100454.61
2019-06-10T23:19:53.584Z,100453.09
2019-06-10T23:22:22.028Z,100461.45
2019-06-10T23:24:51.514Z,100457.94
2019-06-10T23:27:22.192Z,100443.45
2019-06-10T23:29:50.528Z,100437.34
2019-06-10T23:32:19.558Z,100438.27
2019-06-10T23:34:47.865Z,100439.38
2019-06-10T23:37:16.122Z,100432.05
2019-06-10T23:39:44.348Z,100423.48
2019-06-10T23:42:12.623Z,100421.53
2019-06-10T23:44:40.987Z,100425.05
2019-06-10T23:47:09.228Z,100438.46
2019-06-10T23:49:37.505Z,100445.51
2019-06-10T23:52:05.981Z,100460.36
2019-06-10T23:54:34.424Z,100469.23
2019-06-10T23:57:05.511Z,100476.03
2019-06-10T23:59:33.293Z,100483.77
